sensor_id;sensor_type;location;lat;lon;timestamp;P1;durP1;ratioP1;P2;durP2;ratioP2
24277;SDS011;12394;42.692;23.314;2023-06-22T00:00:54;19.60;;;13.77;;
24277;SDS011;12394;42.692;23.314;2023-06-22T00:03:21;18.17;;;13.10;;
24277;SDS011;12394;42.692;23.314;2023-06-22T00:05:49;18.77;;;14.03;;
24277;SDS011;12394;42.692;23.314;2023-06-22T00:08:14;15.73;;;13.43;;
24277;SDS011;12394;42.692;23.314;2023-06-22T00:10:41;15.97;;;12.47;;
24277;SDS011;12394;42.692;23.314;2023-06-22T00:13:07;16.37;;;12.43;;
24277;SDS011;12394;42.692;23.314;2023-06-22T00:15:33;19.57;;;12.57;;
24277;SDS011;12394;42.692;23.314;2023-06-22T00:17:59;15.53;;;13.20;;
24277;SDS011;12394;42.692;23.314;2023-06-22T00:20:25;16.07;;;12.83;;
24277;SDS011;12394;42.692;23.314;2023-06-22T00:22:55;14.67;;;11.47;;
24277;SDS011;12394;42.692;23.314;2023-06-22T00:25:21;17.37;;;12.37;;
24277;SDS011;12394;42.692;23.314;2023-06-22T00:27:47;14.07;;;12.57;;
24277;SDS011;12394;42.692;23.314;2023-06-22T00:30:13;16.17;;;13.33;;
24277;SDS011;12394;42.692;23.314;2023-06-22T00:32:40;15.83;;;12.80;;
24277;SDS011;12394;42.692;23.314;2023-06-22T00:35:06;17.53;;;13.23;;
24277;SDS011;12394;42.692;23.314;2023-06-22T00:37:32;16.70;;;12.83;;
24277;SDS011;12394;42.692;23.314;2023-06-22T00:39:57;18.37;;;13.20;;
24277;SDS011;12394;42.692;23.314;2023-06-22T00:42:22;16.27;;;12.20;;
24277;SDS011;12394;42.692;23.314;2023-06-22T00:44:48;15.47;;;12.13;;
24277;SDS011;12394;42.692;23.314;2023-06-22T00:47:14;19.67;;;12.63;;
24277;SDS011;12394;42.692;23.314;2023-06-22T00:49:42;18.13;;;11.70;;
24277;SDS011;12394;42.692;23.314;2023-06-22T00:52:08;15.70;;;13.27;;
24277;SDS011;12394;42.692;23.314;2023-06-22T00:54:39;14.80;;;11.73;;
24277;SDS011;12394;42.692;23.314;2023-06-22T00:57:13;16.33;;;11.60;;
24277;SDS011;12394;42.692;23.314;2023-06-22T00:59:41;15.87;;;12.50;;
24277;SDS011;12394;42.692;23.314;2023-06-22T01:02:07;15.97;;;12.60;;
24277;SDS011;12394;42.692;23.314;2023-06-22T01:04:34;13.50;;;12.00;;
24277;SDS011;12394;42.692;23.314;2023-06-22T01:07:25;15.50;;;12.03;;
24277;SDS011;12394;42.692;23.314;2023-06-22T01:10:18;13.57;;;12.17;;
24277;SDS011;12394;42.692;23.314;2023-06-22T01:12:54;15.27;;;11.80;;
24277;SDS011;12394;42.692;23.314;2023-06-22T01:15:37;16.90;;;12.57;;
24277;SDS011;12394;42.692;23.314;2023-06-22T01:18:09;13.73;;;12.43;;
24277;SDS011;12394;42.692;23.314;2023-06-22T01:20:35;14.87;;;12.90;;
24277;SDS011;12394;42.692;23.314;2023-06-22T01:25:45;14.93;;;13.33;;
24277;SDS011;12394;42.692;23.314;2023-06-22T01:31:19;18.20;;;12.77;;
24277;SDS011;12394;42.692;23.314;2023-06-22T01:33:49;13.97;;;12.50;;
24277;SDS011;12394;42.692;23.314;2023-06-22T01:36:23;16.20;;;12.93;;
24277;SDS011;12394;42.692;23.314;2023-06-22T01:38:49;13.87;;;12.40;;
24277;SDS011;12394;42.692;23.314;2023-06-22T01:41:16;17.77;;;13.40;;
24277;SDS011;12394;42.692;23.314;2023-06-22T01:43:43;18.17;;;12.77;;
24277;SDS011;12394;42.692;23.314;2023-06-22T01:46:10;17.60;;;12.97;;
24277;SDS011;12394;42.692;23.314;2023-06-22T01:48:36;13.53;;;12.13;;
24277;SDS011;12394;42.692;23.314;2023-06-22T01:51:04;14.13;;;12.13;;
24277;SDS011;12394;42.692;23.314;2023-06-22T01:53:29;18.30;;;13.57;;
24277;SDS011;12394;42.692;23.314;2023-06-22T01:55:55;14.00;;;12.53;;
24277;SDS011;12394;42.692;23.314;2023-06-22T01:58:23;13.87;;;12.50;;
24277;SDS011;12394;42.692;23.314;2023-06-22T02:00:53;13.93;;;12.50;;
24277;SDS011;12394;42.692;23.314;2023-06-22T02:03:30;14.73;;;12.93;;
24277;SDS011;12394;42.692;23.314;2023-06-22T02:06:04;15.70;;;13.07;;
24277;SDS011;12394;42.692;23.314;2023-06-22T02:08:44;18.13;;;12.50;;
24277;SDS011;12394;42.692;23.314;2023-06-22T02:11:14;15.17;;;12.30;;
24277;SDS011;12394;42.692;23.314;2023-06-22T02:13:42;24.90;;;13.83;;
24277;SDS011;12394;42.692;23.314;2023-06-22T02:16:13;17.67;;;12.50;;
24277;SDS011;12394;42.692;23.314;2023-06-22T02:18:45;16.87;;;12.20;;
24277;SDS011;12394;42.692;23.314;2023-06-22T02:21:11;13.20;;;11.80;;
24277;SDS011;12394;42.692;23.314;2023-06-22T02:23:37;13.00;;;11.30;;
24277;SDS011;12394;42.692;23.314;2023-06-22T02:26:02;15.93;;;11.67;;
24277;SDS011;12394;42.692;23.314;2023-06-22T02:28:29;17.53;;;11.90;;
24277;SDS011;12394;42.692;23.314;2023-06-22T02:30:54;14.67;;;12.00;;
24277;SDS011;12394;42.692;23.314;2023-06-22T02:33:20;18.73;;;12.23;;
24277;SDS011;12394;42.692;23.314;2023-06-22T02:35:45;13.57;;;12.07;;
24277;SDS011;12394;42.692;23.314;2023-06-22T02:38:14;17.53;;;12.93;;
24277;SDS011;12394;42.692;23.314;2023-06-22T02:40:40;14.83;;;13.17;;
24277;SDS011;12394;42.692;23.314;2023-06-22T02:43:05;18.87;;;12.97;;
24277;SDS011;12394;42.692;23.314;2023-06-22T02:45:31;15.70;;;12.57;;
24277;SDS011;12394;42.692;23.314;2023-06-22T02:47:56;15.00;;;12.27;;
24277;SDS011;12394;42.692;23.314;2023-06-22T02:50:22;13.20;;;11.83;;
24277;SDS011;12394;42.692;23.314;2023-06-22T02:52:48;17.57;;;12.77;;
24277;SDS011;12394;42.692;23.314;2023-06-22T02:55:14;14.90;;;12.20;;
24277;SDS011;12394;42.692;23.314;2023-06-22T02:57:39;14.23;;;12.07;;
24277;SDS011;12394;42.692;23.314;2023-06-22T03:02:48;15.47;;;13.70;;
24277;SDS011;12394;42.692;23.314;2023-06-22T03:05:14;15.50;;;12.20;;
24277;SDS011;12394;42.692;23.314;2023-06-22T03:07:43;15.47;;;12.73;;
24277;SDS011;12394;42.692;23.314;2023-06-22T03:10:09;14.37;;;12.50;;
24277;SDS011;12394;42.692;23.314;2023-06-22T03:12:36;14.30;;;12.10;;
24277;SDS011;12394;42.692;23.314;2023-06-22T03:15:03;16.03;;;12.70;;
24277;SDS011;12394;42.692;23.314;2023-06-22T03:17:30;16.63;;;13.40;;
24277;SDS011;12394;42.692;23.314;2023-06-22T03:19:55;16.20;;;13.00;;
24277;SDS011;12394;42.692;23.314;2023-06-22T03:22:21;21.43;;;13.47;;
24277;SDS011;12394;42.692;23.314;2023-06-22T03:24:46;18.63;;;13.50;;
24277;SDS011;12394;42.692;23.314;2023-06-22T03:27:12;13.80;;;12.30;;
24277;SDS011;12394;42.692;23.314;2023-06-22T03:29:38;14.20;;;12.80;;
24277;SDS011;12394;42.692;23.314;2023-06-22T03:32:03;17.57;;;13.40;;
24277;SDS011;12394;42.692;23.314;2023-06-22T03:34:31;20.23;;;12.40;;
24277;SDS011;12394;42.692;23.314;2023-06-22T03:36:58;14.23;;;11.40;;
24277;SDS011;12394;42.692;23.314;2023-06-22T03:39:24;17.50;;;13.93;;
24277;SDS011;12394;42.692;23.314;2023-06-22T03:41:49;14.40;;;12.70;;
24277;SDS011;12394;42.692;23.314;2023-06-22T03:44:14;15.47;;;12.53;;
24277;SDS011;12394;42.692;23.314;2023-06-22T03:46:40;15.13;;;12.93;;
24277;SDS011;12394;42.692;23.314;2023-06-22T03:49:06;15.70;;;12.87;;
24277;SDS011;12394;42.692;23.314;2023-06-22T03:51:32;16.23;;;12.37;;
24277;SDS011;12394;42.692;23.314;2023-06-22T03:53:58;17.40;;;12.83;;
24277;SDS011;12394;42.692;23.314;2023-06-22T03:56:23;14.63;;;12.67;;
24277;SDS011;12394;42.692;23.314;2023-06-22T03:58:48;16.50;;;13.00;;
24277;SDS011;12394;42.692;23.314;2023-06-22T04:01:14;16.33;;;12.87;;
24277;SDS011;12394;42.692;23.314;2023-06-22T04:03:42;19.27;;;13.20;;
24277;SDS011;12394;42.692;23.314;2023-06-22T04:06:07;16.37;;;13.17;;
24277;SDS011;12394;42.692;23.314;2023-06-22T04:08:33;16.70;;;12.77;;
24277;SDS011;12394;42.692;23.314;2023-06-22T04:10:58;14.07;;;12.57;;
24277;SDS011;12394;42.692;23.314;2023-06-22T04:13:23;17.53;;;12.77;;
24277;SDS011;12394;42.692;23.314;2023-06-22T04:15:49;15.63;;;13.87;;
24277;SDS011;12394;42.692;23.314;2023-06-22T04:18:14;15.83;;;12.87;;
24277;SDS011;12394;42.692;23.314;2023-06-22T04:20:40;15.87;;;13.43;;
24277;SDS011;12394;42.692;23.314;2023-06-22T04:23:05;15.47;;;13.43;;
24277;SDS011;12394;42.692;23.314;2023-06-22T04:25:30;19.53;;;13.37;;
24277;SDS011;12394;42.692;23.314;2023-06-22T04:27:56;22.33;;;14.80;;
24277;SDS011;12394;42.692;23.314;2023-06-22T04:30:21;21.67;;;13.57;;
24277;SDS011;12394;42.692;23.314;2023-06-22T04:32:47;18.47;;;13.37;;
24277;SDS011;12394;42.692;23.314;2023-06-22T04:35:21;21.03;;;14.50;;
24277;SDS011;12394;42.692;23.314;2023-06-22T04:37:47;25.03;;;15.47;;
24277;SDS011;12394;42.692;23.314;2023-06-22T04:40:14;21.40;;;15.47;;
24277;SDS011;12394;42.692;23.314;2023-06-22T04:42:40;18.73;;;14.73;;
24277;SDS011;12394;42.692;23.314;2023-06-22T04:45:07;20.33;;;14.70;;
24277;SDS011;12394;42.692;23.314;2023-06-22T04:47:34;27.70;;;16.03;;
24277;SDS011;12394;42.692;23.314;2023-06-22T04:50:04;19.00;;;14.40;;
24277;SDS011;12394;42.692;23.314;2023-06-22T04:52:31;21.40;;;14.33;;
24277;SDS011;12394;42.692;23.314;2023-06-22T04:54:56;16.60;;;13.93;;
24277;SDS011;12394;42.692;23.314;2023-06-22T04:57:22;16.43;;;14.10;;
24277;SDS011;12394;42.692;23.314;2023-06-22T04:59:58;19.13;;;14.47;;
24277;SDS011;12394;42.692;23.314;2023-06-22T05:02:39;17.53;;;14.17;;
24277;SDS011;12394;42.692;23.314;2023-06-22T05:05:05;16.73;;;13.23;;
24277;SDS011;12394;42.692;23.314;2023-06-22T05:07:35;20.93;;;14.03;;
24277;SDS011;12394;42.692;23.314;2023-06-22T05:10:04;18.17;;;14.47;;
24277;SDS011;12394;42.692;23.314;2023-06-22T05:12:30;26.10;;;15.63;;
24277;SDS011;12394;42.692;23.314;2023-06-22T05:14:56;27.47;;;16.27;;
24277;SDS011;12394;42.692;23.314;2023-06-22T05:17:21;30.43;;;19.23;;
24277;SDS011;12394;42.692;23.314;2023-06-22T05:19:47;22.33;;;15.50;;
24277;SDS011;12394;42.692;23.314;2023-06-22T05:22:16;26.57;;;19.17;;
24277;SDS011;12394;42.692;23.314;2023-06-22T05:24:42;21.93;;;15.27;;
24277;SDS011;12394;42.692;23.314;2023-06-22T05:27:08;20.53;;;13.80;;
24277;SDS011;12394;42.692;23.314;2023-06-22T05:29:34;17.77;;;14.47;;
24277;SDS011;12394;42.692;23.314;2023-06-22T05:32:00;19.60;;;14.73;;
24277;SDS011;12394;42.692;23.314;2023-06-22T05:34:26;21.63;;;17.77;;
24277;SDS011;12394;42.692;23.314;2023-06-22T05:36:51;23.90;;;16.73;;
24277;SDS011;12394;42.692;23.314;2023-06-22T05:39:17;15.63;;;13.97;;
24277;SDS011;12394;42.692;23.314;2023-06-22T05:41:42;24.00;;;18.57;;
24277;SDS011;12394;42.692;23.314;2023-06-22T05:44:09;18.73;;;15.77;;
24277;SDS011;12394;42.692;23.314;2023-06-22T05:46:34;19.80;;;16.27;;
24277;SDS011;12394;42.692;23.314;2023-06-22T05:49:00;19.57;;;13.03;;
24277;SDS011;12394;42.692;23.314;2023-06-22T05:51:25;20.23;;;13.83;;
24277;SDS011;12394;42.692;23.314;2023-06-22T05:53:51;18.90;;;14.93;;
24277;SDS011;12394;42.692;23.314;2023-06-22T05:56:16;24.50;;;18.53;;
24277;SDS011;12394;42.692;23.314;2023-06-22T05:58:42;17.43;;;15.20;;
24277;SDS011;12394;42.692;23.314;2023-06-22T06:01:08;20.80;;;15.33;;
24277;SDS011;12394;42.692;23.314;2023-06-22T06:03:33;21.37;;;15.17;;
24277;SDS011;12394;42.692;23.314;2023-06-22T06:05:58;23.70;;;15.97;;
24277;SDS011;12394;42.692;23.314;2023-06-22T06:08:24;26.33;;;17.57;;
24277;SDS011;12394;42.692;23.314;2023-06-22T06:10:50;20.13;;;16.00;;
24277;SDS011;12394;42.692;23.314;2023-06-22T06:13:17;20.67;;;17.03;;
24277;SDS011;12394;42.692;23.314;2023-06-22T06:15:43;18.47;;;15.23;;
24277;SDS011;12394;42.692;23.314;2023-06-22T06:18:09;20.40;;;15.40;;
24277;SDS011;12394;42.692;23.314;2023-06-22T06:20:34;22.90;;;17.00;;
24277;SDS011;12394;42.692;23.314;2023-06-22T06:23:00;21.53;;;16.17;;
24277;SDS011;12394;42.692;23.314;2023-06-22T06:25:26;20.37;;;15.50;;
24277;SDS011;12394;42.692;23.314;2023-06-22T06:27:52;18.13;;;15.80;;
24277;SDS011;12394;42.692;23.314;2023-06-22T06:30:19;18.60;;;16.70;;
24277;SDS011;12394;42.692;23.314;2023-06-22T06:32:46;20.80;;;16.83;;
24277;SDS011;12394;42.692;23.314;2023-06-22T06:35:12;19.10;;;16.17;;
24277;SDS011;12394;42.692;23.314;2023-06-22T06:37:41;20.67;;;16.57;;
24277;SDS011;12394;42.692;23.314;2023-06-22T06:40:07;21.17;;;15.20;;
24277;SDS011;12394;42.692;23.314;2023-06-22T06:42:35;20.83;;;16.43;;
24277;SDS011;12394;42.692;23.314;2023-06-22T06:45:09;18.93;;;16.43;;
24277;SDS011;12394;42.692;23.314;2023-06-22T06:47:41;19.23;;;16.40;;
24277;SDS011;12394;42.692;23.314;2023-06-22T06:50:06;16.40;;;14.30;;
24277;SDS011;12394;42.692;23.314;2023-06-22T06:52:32;17.20;;;14.37;;
24277;SDS011;12394;42.692;23.314;2023-06-22T06:54:58;18.03;;;14.60;;
24277;SDS011;12394;42.692;23.314;2023-06-22T06:57:25;23.93;;;13.77;;
24277;SDS011;12394;42.692;23.314;2023-06-22T06:59:55;16.27;;;12.90;;
24277;SDS011;12394;42.692;23.314;2023-06-22T07:02:21;29.47;;;14.17;;
24277;SDS011;12394;42.692;23.314;2023-06-22T07:04:47;18.23;;;13.57;;
24277;SDS011;12394;42.692;23.314;2023-06-22T07:07:13;19.73;;;14.53;;
24277;SDS011;12394;42.692;23.314;2023-06-22T07:09:38;14.30;;;12.80;;
24277;SDS011;12394;42.692;23.314;2023-06-22T07:12:04;19.70;;;13.73;;
24277;SDS011;12394;42.692;23.314;2023-06-22T07:14:29;15.47;;;12.90;;
24277;SDS011;12394;42.692;23.314;2023-06-22T07:16:56;16.90;;;14.50;;
24277;SDS011;12394;42.692;23.314;2023-06-22T07:19:25;16.93;;;13.87;;
24277;SDS011;12394;42.692;23.314;2023-06-22T07:21:55;19.43;;;14.03;;
24277;SDS011;12394;42.692;23.314;2023-06-22T07:24:21;19.70;;;13.57;;
24277;SDS011;12394;42.692;23.314;2023-06-22T07:26:47;18.37;;;13.40;;
24277;SDS011;12394;42.692;23.314;2023-06-22T07:29:14;19.53;;;13.60;;
24277;SDS011;12394;42.692;23.314;2023-06-22T07:31:45;21.07;;;13.97;;
24277;SDS011;12394;42.692;23.314;2023-06-22T07:34:10;21.63;;;13.70;;
24277;SDS011;12394;42.692;23.314;2023-06-22T07:36:36;21.77;;;13.10;;
24277;SDS011;12394;42.692;23.314;2023-06-22T07:39:02;19.93;;;12.77;;
24277;SDS011;12394;42.692;23.314;2023-06-22T07:41:28;16.90;;;12.23;;
24277;SDS011;12394;42.692;23.314;2023-06-22T07:43:54;20.77;;;12.83;;
24277;SDS011;12394;42.692;23.314;2023-06-22T07:46:19;27.40;;;15.80;;
24277;SDS011;12394;42.692;23.314;2023-06-22T07:48:45;19.47;;;13.17;;
24277;SDS011;12394;42.692;23.314;2023-06-22T07:51:10;23.57;;;12.63;;
24277;SDS011;12394;42.692;23.314;2023-06-22T07:53:37;20.80;;;12.17;;
24277;SDS011;12394;42.692;23.314;2023-06-22T07:56:05;18.33;;;11.90;;
24277;SDS011;12394;42.692;23.314;2023-06-22T07:58:32;14.23;;;11.73;;
24277;SDS011;12394;42.692;23.314;2023-06-22T08:01:01;16.33;;;12.23;;
24277;SDS011;12394;42.692;23.314;2023-06-22T08:03:27;14.77;;;11.90;;
24277;SDS011;12394;42.692;23.314;2023-06-22T08:05:53;16.97;;;12.13;;
24277;SDS011;12394;42.692;23.314;2023-06-22T08:08:18;20.17;;;12.67;;
24277;SDS011;12394;42.692;23.314;2023-06-22T08:10:44;15.47;;;13.30;;
24277;SDS011;12394;42.692;23.314;2023-06-22T08:13:09;17.07;;;12.67;;
24277;SDS011;12394;42.692;23.314;2023-06-22T08:15:35;15.77;;;12.40;;
24277;SDS011;12394;42.692;23.314;2023-06-22T08:18:00;24.23;;;12.90;;
24277;SDS011;12394;42.692;23.314;2023-06-22T08:20:26;18.00;;;13.03;;
24277;SDS011;12394;42.692;23.314;2023-06-22T08:22:53;15.87;;;12.23;;
24277;SDS011;12394;42.692;23.314;2023-06-22T08:25:19;17.47;;;11.33;;
24277;SDS011;12394;42.692;23.314;2023-06-22T08:27:45;15.63;;;11.90;;
24277;SDS011;12394;42.692;23.314;2023-06-22T08:30:12;13.47;;;12.07;;
24277;SDS011;12394;42.692;23.314;2023-06-22T08:32:37;17.43;;;11.87;;
24277;SDS011;12394;42.692;23.314;2023-06-22T08:35:03;16.63;;;11.43;;
24277;SDS011;12394;42.692;23.314;2023-06-22T08:37:28;11.77;;;10.43;;
24277;SDS011;12394;42.692;23.314;2023-06-22T08:40:03;13.37;;;11.87;;
24277;SDS011;12394;42.692;23.314;2023-06-22T08:42:33;11.87;;;10.60;;
24277;SDS011;12394;42.692;23.314;2023-06-22T08:44:59;11.83;;;10.57;;
24277;SDS011;12394;42.692;23.314;2023-06-22T08:47:26;15.53;;;10.83;;
24277;SDS011;12394;42.692;23.314;2023-06-22T08:49:52;11.90;;;10.77;;
24277;SDS011;12394;42.692;23.314;2023-06-22T08:52:17;13.02;;;10.32;;
24277;SDS011;12394;42.692;23.314;2023-06-22T08:54:45;12.40;;;10.35;;
24277;SDS011;12394;42.692;23.314;2023-06-22T08:57:10;16.45;;;10.68;;
24277;SDS011;12394;42.692;23.314;2023-06-22T08:59:36;11.98;;;10.02;;
24277;SDS011;12394;42.692;23.314;2023-06-22T09:02:01;12.13;;;10.23;;
24277;SDS011;12394;42.692;23.314;2023-06-22T09:04:26;12.45;;;10.63;;
24277;SDS011;12394;42.692;23.314;2023-06-22T09:06:52;11.00;;;9.52;;
24277;SDS011;12394;42.692;23.314;2023-06-22T09:09:18;12.13;;;11.10;;
24277;SDS011;12394;42.692;23.314;2023-06-22T09:11:43;10.38;;;9.38;;
24277;SDS011;12394;42.692;23.314;2023-06-22T09:14:10;12.18;;;11.02;;
24277;SDS011;12394;42.692;23.314;2023-06-22T09:16:36;10.98;;;9.88;;
24277;SDS011;12394;42.692;23.314;2023-06-22T09:19:01;10.43;;;9.43;;
24277;SDS011;12394;42.692;23.314;2023-06-22T09:21:27;14.25;;;9.70;;
24277;SDS011;12394;42.692;23.314;2023-06-22T09:23:53;10.30;;;9.02;;
24277;SDS011;12394;42.692;23.314;2023-06-22T09:26:18;11.00;;;9.82;;
24277;SDS011;12394;42.692;23.314;2023-06-22T09:28:44;10.18;;;8.88;;
24277;SDS011;12394;42.692;23.314;2023-06-22T09:31:10;10.80;;;9.07;;
24277;SDS011;12394;42.692;23.314;2023-06-22T09:33:36;9.85;;;8.85;;
24277;SDS011;12394;42.692;23.314;2023-06-22T09:36:03;9.30;;;8.50;;
24277;SDS011;12394;42.692;23.314;2023-06-22T09:38:34;9.93;;;9.02;;
24277;SDS011;12394;42.692;23.314;2023-06-22T09:41:00;9.52;;;8.68;;
24277;SDS011;12394;42.692;23.314;2023-06-22T09:43:25;11.77;;;9.77;;
24277;SDS011;12394;42.692;23.314;2023-06-22T09:45:50;10.77;;;9.73;;
24277;SDS011;12394;42.692;23.314;2023-06-22T09:48:16;9.43;;;8.57;;
24277;SDS011;12394;42.692;23.314;2023-06-22T09:50:41;11.82;;;9.00;;
24277;SDS011;12394;42.692;23.314;2023-06-22T09:53:07;9.45;;;8.23;;
24277;SDS011;12394;42.692;23.314;2023-06-22T09:55:32;8.48;;;7.68;;
24277;SDS011;12394;42.692;23.314;2023-06-22T09:57:58;9.13;;;7.55;;
24277;SDS011;12394;42.692;23.314;2023-06-22T10:00:23;9.95;;;8.82;;
24277;SDS011;12394;42.692;23.314;2023-06-22T10:02:49;11.48;;;10.13;;
24277;SDS011;12394;42.692;23.314;2023-06-22T10:05:15;11.40;;;10.25;;
24277;SDS011;12394;42.692;23.314;2023-06-22T10:07:41;9.10;;;8.32;;
24277;SDS011;12394;42.692;23.314;2023-06-22T10:10:08;10.77;;;8.95;;
24277;SDS011;12394;42.692;23.314;2023-06-22T10:12:34;10.18;;;9.18;;
24277;SDS011;12394;42.692;23.314;2023-06-22T10:15:00;9.25;;;8.43;;
24277;SDS011;12394;42.692;23.314;2023-06-22T10:17:25;10.45;;;9.40;;
24277;SDS011;12394;42.692;23.314;2023-06-22T10:19:51;12.13;;;9.43;;
24277;SDS011;12394;42.692;23.314;2023-06-22T10:22:16;9.75;;;8.90;;
24277;SDS011;12394;42.692;23.314;2023-06-22T10:24:42;10.65;;;9.65;;
24277;SDS011;12394;42.692;23.314;2023-06-22T10:27:11;9.85;;;8.90;;
24277;SDS011;12394;42.692;23.314;2023-06-22T10:29:37;10.98;;;9.13;;
24277;SDS011;12394;42.692;23.314;2023-06-22T10:32:03;17.65;;;11.60;;
24277;SDS011;12394;42.692;23.314;2023-06-22T10:34:28;13.05;;;11.95;;
24277;SDS011;12394;42.692;23.314;2023-06-22T10:36:54;10.85;;;9.38;;
24277;SDS011;12394;42.692;23.314;2023-06-22T10:39:19;10.00;;;9.10;;
24277;SDS011;12394;42.692;23.314;2023-06-22T10:41:45;11.10;;;10.02;;
24277;SDS011;12394;42.692;23.314;2023-06-22T10:44:10;10.13;;;9.13;;
24277;SDS011;12394;42.692;23.314;2023-06-22T10:46:37;11.27;;;10.00;;
24277;SDS011;12394;42.692;23.314;2023-06-22T10:49:02;13.40;;;9.93;;
24277;SDS011;12394;42.692;23.314;2023-06-22T10:51:28;12.68;;;11.07;;
24277;SDS011;12394;42.692;23.314;2023-06-22T10:53:53;11.38;;;10.15;;
24277;SDS011;12394;42.692;23.314;2023-06-22T10:56:19;11.90;;;10.80;;
24277;SDS011;12394;42.692;23.314;2023-06-22T10:58:44;13.37;;;11.20;;
24277;SDS011;12394;42.692;23.314;2023-06-22T11:01:10;11.17;;;10.07;;
24277;SDS011;12394;42.692;23.314;2023-06-22T11:03:36;12.00;;;10.37;;
24277;SDS011;12394;42.692;23.314;2023-06-22T11:06:02;10.23;;;9.23;;
24277;SDS011;12394;42.692;23.314;2023-06-22T11:08:27;11.97;;;10.57;;
24277;SDS011;12394;42.692;23.314;2023-06-22T11:10:53;14.00;;;11.77;;
24277;SDS011;12394;42.692;23.314;2023-06-22T11:13:18;11.70;;;10.17;;
24277;SDS011;12394;42.692;23.314;2023-06-22T11:15:44;11.97;;;10.57;;
24277;SDS011;12394;42.692;23.314;2023-06-22T11:18:09;11.10;;;10.00;;
24277;SDS011;12394;42.692;23.314;2023-06-22T11:20:35;13.13;;;9.60;;
24277;SDS011;12394;42.692;23.314;2023-06-22T11:23:03;13.13;;;9.30;;
24277;SDS011;12394;42.692;23.314;2023-06-22T11:25:30;12.90;;;9.50;;
24277;SDS011;12394;42.692;23.314;2023-06-22T11:27:56;9.83;;;8.93;;
24277;SDS011;12394;42.692;23.314;2023-06-22T11:30:21;10.97;;;9.97;;
24277;SDS011;12394;42.692;23.314;2023-06-22T11:32:47;9.37;;;8.47;;
24277;SDS011;12394;42.692;23.314;2023-06-22T11:35:13;8.17;;;7.30;;
24277;SDS011;12394;42.692;23.314;2023-06-22T11:37:38;12.70;;;9.23;;
24277;SDS011;12394;42.692;23.314;2023-06-22T11:40:04;9.53;;;8.37;;
24277;SDS011;12394;42.692;23.314;2023-06-22T11:42:30;9.53;;;8.57;;
24277;SDS011;12394;42.692;23.314;2023-06-22T11:44:56;9.73;;;8.83;;
24277;SDS011;12394;42.692;23.314;2023-06-22T11:47:21;9.40;;;8.50;;
24277;SDS011;12394;42.692;23.314;2023-06-22T11:49:47;12.83;;;8.70;;
24277;SDS011;12394;42.692;23.314;2023-06-22T11:52:12;18.50;;;9.60;;
24277;SDS011;12394;42.692;23.314;2023-06-22T11:54:37;13.70;;;10.90;;
24277;SDS011;12394;42.692;23.314;2023-06-22T11:57:04;11.00;;;9.90;;
24277;SDS011;12394;42.692;23.314;2023-06-22T11:59:29;14.07;;;11.27;;
24277;SDS011;12394;42.692;23.314;2023-06-22T12:01:54;12.87;;;10.20;;
24277;SDS011;12394;42.692;23.314;2023-06-22T12:04:20;12.53;;;11.27;;
24277;SDS011;12394;42.692;23.314;2023-06-22T12:06:45;10.07;;;9.10;;
24277;SDS011;12394;42.692;23.314;2023-06-22T12:09:14;11.33;;;9.07;;
24277;SDS011;12394;42.692;23.314;2023-06-22T12:11:40;10.37;;;9.27;;
24277;SDS011;12394;42.692;23.314;2023-06-22T12:14:05;11.40;;;9.87;;
24277;SDS011;12394;42.692;23.314;2023-06-22T12:16:30;11.83;;;8.87;;
24277;SDS011;12394;42.692;23.314;2023-06-22T12:18:56;11.60;;;10.40;;
24277;SDS011;12394;42.692;23.314;2023-06-22T12:21:21;12.50;;;9.67;;
24277;SDS011;12394;42.692;23.314;2023-06-22T12:23:47;10.97;;;9.90;;
24277;SDS011;12394;42.692;23.314;2023-06-22T12:26:13;11.27;;;9.73;;
24277;SDS011;12394;42.692;23.314;2023-06-22T12:28:38;15.63;;;11.07;;
24277;SDS011;12394;42.692;23.314;2023-06-22T12:31:03;11.17;;;10.07;;
24277;SDS011;12394;42.692;23.314;2023-06-22T12:33:29;12.43;;;10.97;;
24277;SDS011;12394;42.692;23.314;2023-06-22T12:35:56;10.77;;;9.83;;
24277;SDS011;12394;42.692;23.314;2023-06-22T12:38:22;17.63;;;11.47;;
24277;SDS011;12394;42.692;23.314;2023-06-22T12:40:49;11.60;;;10.27;;
24277;SDS011;12394;42.692;23.314;2023-06-22T12:43:14;15.33;;;11.00;;
24277;SDS011;12394;42.692;23.314;2023-06-22T12:45:40;14.50;;;11.07;;
24277;SDS011;12394;42.692;23.314;2023-06-22T12:48:05;10.23;;;8.80;;
24277;SDS011;12394;42.692;23.314;2023-06-22T12:50:31;18.73;;;10.00;;
24277;SDS011;12394;42.692;23.314;2023-06-22T12:52:57;12.53;;;8.17;;
24277;SDS011;12394;42.692;23.314;2023-06-22T12:55:23;11.10;;;9.40;;
24277;SDS011;12394;42.692;23.314;2023-06-22T12:57:51;11.97;;;8.27;;
24277;SDS011;12394;42.692;23.314;2023-06-22T13:00:17;11.40;;;8.07;;
24277;SDS011;12394;42.692;23.314;2023-06-22T13:02:43;12.93;;;9.10;;
24277;SDS011;12394;42.692;23.314;2023-06-22T13:05:08;17.90;;;9.73;;
24277;SDS011;12394;42.692;23.314;2023-06-22T13:07:34;17.40;;;9.77;;
24277;SDS011;12394;42.692;23.314;2023-06-22T13:09:59;16.60;;;9.60;;
24277;SDS011;12394;42.692;23.314;2023-06-22T13:12:27;12.83;;;8.97;;
24277;SDS011;12394;42.692;23.314;2023-06-22T13:14:53;22.93;;;9.67;;
24277;SDS011;12394;42.692;23.314;2023-06-22T13:17:18;13.27;;;8.97;;
24277;SDS011;12394;42.692;23.314;2023-06-22T13:19:44;10.77;;;8.33;;
24277;SDS011;12394;42.692;23.314;2023-06-22T13:25:22;12.37;;;9.10;;
24277;SDS011;12394;42.692;23.314;2023-06-22T13:27:51;12.67;;;9.93;;
24277;SDS011;12394;42.692;23.314;2023-06-22T13:30:17;16.03;;;10.87;;
24277;SDS011;12394;42.692;23.314;2023-06-22T13:32:42;12.17;;;10.00;;
24277;SDS011;12394;42.692;23.314;2023-06-22T13:35:08;16.47;;;11.00;;
24277;SDS011;12394;42.692;23.314;2023-06-22T13:37:35;15.83;;;11.03;;
24277;SDS011;12394;42.692;23.314;2023-06-22T13:40:00;15.10;;;10.80;;
24277;SDS011;12394;42.692;23.314;2023-06-22T13:42:28;13.20;;;10.67;;
24277;SDS011;12394;42.692;23.314;2023-06-22T13:44:54;11.77;;;10.03;;
24277;SDS011;12394;42.692;23.314;2023-06-22T13:47:19;11.47;;;10.27;;
24277;SDS011;12394;42.692;23.314;2023-06-22T13:49:45;15.20;;;11.93;;
24277;SDS011;12394;42.692;23.314;2023-06-22T13:52:13;14.43;;;11.37;;
24277;SDS011;12394;42.692;23.314;2023-06-22T13:54:39;12.80;;;10.17;;
24277;SDS011;12394;42.692;23.314;2023-06-22T13:57:04;14.77;;;11.43;;
24277;SDS011;12394;42.692;23.314;2023-06-22T13:59:30;17.13;;;12.53;;
24277;SDS011;12394;42.692;23.314;2023-06-22T14:01:59;18.57;;;12.07;;
24277;SDS011;12394;42.692;23.314;2023-06-22T14:04:24;20.37;;;11.87;;
24277;SDS011;12394;42.692;23.314;2023-06-22T14:06:49;16.93;;;11.53;;
24277;SDS011;12394;42.692;23.314;2023-06-22T14:09:15;19.00;;;12.80;;
24277;SDS011;12394;42.692;23.314;2023-06-22T14:11:40;15.57;;;10.77;;
24277;SDS011;12394;42.692;23.314;2023-06-22T14:14:06;15.27;;;11.60;;
24277;SDS011;12394;42.692;23.314;2023-06-22T14:16:32;16.53;;;12.37;;
24277;SDS011;12394;42.692;23.314;2023-06-22T14:18:57;16.43;;;10.57;;
24277;SDS011;12394;42.692;23.314;2023-06-22T14:21:26;15.37;;;10.73;;